createdAt,value
2019-06-08T00:01:20.489Z,33.91
2019-06-08T00:03:46.806Z,34.53
2019-06-08T00:06:13.020Z,34.05
2019-06-08T00:08:39.205Z,34.53
2019-06-08T00:11:05.372Z,33.72
2019-06-08T00:13:31.589Z,33.59
2019-06-08T00:15:57.844Z,33.21
2019-06-08T00:18:24.287Z,34.34
2019-06-08T00:20:50.662Z,34.39
2019-06-08T00:23:17.668Z,34.56
2019-06-08T00:25:43.936Z,34.76
2019-06-08T00:28:10.152Z,35.71
2019-06-08T00:30:37.231Z,35.51
2019-06-08T00:33:03.693Z,35.28
2019-06-08T00:35:29.901Z,35.49
2019-06-08T00:37:56.104Z,35.45
2019-06-08T00:40:23.109Z,35.28
2019-06-08T00:42:49.437Z,36.47
2019-06-08T00:45:15.697Z,36.58
2019-06-08T00:47:48.013Z,36.45
2019-06-08T00:50:10.469Z,36.15
2019-06-08T00:52:36.662Z,36.39
2019-06-08T00:55:04.719Z,38.79
2019-06-08T00:57:30.970Z,37.25
2019-06-08T00:59:57.214Z,36.99
2019-06-08T01:02:24.572Z,36.40
2019-06-08T01:04:50.996Z,36.54
2019-06-08T01:07:17.924Z,36.34
2019-06-08T01:09:44.226Z,36.08
2019-06-08T01:12:10.606Z,36.21
2019-06-08T01:14:36.769Z,35.43
2019-06-08T01:17:03.154Z,35.17
2019-06-08T01:19:29.803Z,35.34
2019-06-08T01:21:56.314Z,35.41
2019-06-08T01:24:23.711Z,35.54
2019-06-08T01:26:50.066Z,35.86
2019-06-08T01:29:16.250Z,36.02
2019-06-08T01:31:42.399Z,35.97
2019-06-08T01:34:08.621Z,35.25
2019-06-08T01:36:34.808Z,35.50
2019-06-08T01:39:00.954Z,35.67
2019-06-08T01:41:27.752Z,35.33
2019-06-08T01:43:54.035Z,35.35
2019-06-08T01:46:20.193Z,35.87
2019-06-08T01:48:46.400Z,35.40
2019-06-08T01:51:12.591Z,34.97
2019-06-08T01:53:38.883Z,35.17
2019-06-08T01:56:05.070Z,35.59
2019-06-08T01:58:31.496Z,36.15
2019-06-08T02:00:57.908Z,36.29
2019-06-08T02:03:24.114Z,35.25
2019-06-08T02:05:50.283Z,35.40
2019-06-08T02:08:16.436Z,35.53
2019-06-08T02:10:42.616Z,35.98
2019-06-08T02:13:09.032Z,35.57
2019-06-08T02:15:35.423Z,36.94
2019-06-08T02:18:01.664Z,36.59
2019-06-08T02:20:28.768Z,36.25
2019-06-08T02:22:55.147Z,35.85
2019-06-08T02:25:27.234Z,35.86
2019-06-08T02:27:54.011Z,35.25
2019-06-08T02:30:20.283Z,34.95
2019-06-08T02:32:46.470Z,35.01
2019-06-08T02:35:12.926Z,35.74
2019-06-08T02:37:39.894Z,35.21
2019-06-08T02:40:07.081Z,35.76
2019-06-08T02:42:35.283Z,37.11
2019-06-08T02:45:01.330Z,36.08
2019-06-08T02:47:28.417Z,35.91
2019-06-08T02:49:55.353Z,36.21
2019-06-08T02:52:21.616Z,35.31
2019-06-08T02:54:48.708Z,36.13
2019-06-08T02:57:15.497Z,34.72
2019-06-08T02:59:43.059Z,32.93
2019-06-08T03:02:10.067Z,31.70
2019-06-08T03:04:38.534Z,32.51
2019-06-08T03:07:04.797Z,31.02
2019-06-08T03:09:32.475Z,29.61
2019-06-08T03:12:01.482Z,28.24
2019-06-08T03:14:27.750Z,28.13
2019-06-08T03:16:54.234Z,27.87
2019-06-08T03:19:22.649Z,28.26
2019-06-08T03:21:48.470Z,28.29
2019-06-08T03:24:14.667Z,27.57
2019-06-08T03:26:41.843Z,29.60
2019-06-08T03:29:08.915Z,30.97
2019-06-08T03:31:42.567Z,29.06
2019-06-08T03:34:03.169Z,27.92
2019-06-08T03:36:29.342Z,26.46
2019-06-08T03:38:55.526Z,26.36
2019-06-08T03:41:21.864Z,24.69
2019-06-08T03:43:48.040Z,25.95
2019-06-08T03:46:14.233Z,25.06
2019-06-08T03:48:42.194Z,22.71
2019-06-08T03:51:08.459Z,21.57
2019-06-08T03:53:35.697Z,20.99
2019-06-08T03:56:02.516Z,19.18
2019-06-08T03:58:28.692Z,17.56
2019-06-08T04:00:54.877Z,17.10
2019-06-08T04:03:21.031Z,16.79
2019-06-08T04:05:47.218Z,16.83
2019-06-08T04:08:13.424Z,17.42
2019-06-08T04:10:39.983Z,17.64
2019-06-08T04:13:11.382Z,17.36
2019-06-08T04:15:35.783Z,17.50
2019-06-08T04:18:01.973Z,18.68
2019-06-08T04:20:28.144Z,18.33
2019-06-08T04:22:54.385Z,19.47
2019-06-08T04:25:20.570Z,18.38
2019-06-08T04:27:47.070Z,16.78
2019-06-08T04:30:14.940Z,14.87
2019-06-08T04:32:42.725Z,14.51
2019-06-08T04:35:09.577Z,14.71
2019-06-08T04:37:35.756Z,14.28
2019-06-08T04:40:05.818Z,14.54
2019-06-08T04:42:31.972Z,15.25
2019-06-08T04:44:58.257Z,16.16
2019-06-08T04:47:24.416Z,15.71
2019-06-08T04:49:50.593Z,15.54
2019-06-08T04:52:16.796Z,15.88
2019-06-08T04:54:42.953Z,15.64
2019-06-08T04:57:09.739Z,15.90
2019-06-08T04:59:35.927Z,15.34
2019-06-08T05:02:02.083Z,15.20
2019-06-08T05:04:28.287Z,14.84
2019-06-08T05:06:54.499Z,14.32
2019-06-08T05:09:20.655Z,13.82
2019-06-08T05:11:47.438Z,13.63
2019-06-08T05:14:13.920Z,15.63
2019-06-08T05:16:41.212Z,14.62
2019-06-08T05:19:07.646Z,14.27
2019-06-08T05:21:34.101Z,15.04
2019-06-08T05:24:01.315Z,14.13
2019-06-08T05:26:27.575Z,16.12
2019-06-08T05:28:53.769Z,15.90
2019-06-08T05:31:19.954Z,17.65
2019-06-08T05:33:47.526Z,17.61
2019-06-08T05:36:13.920Z,17.81
2019-06-08T05:38:41.533Z,19.39
2019-06-08T05:41:07.966Z,19.53
2019-06-08T05:43:34.154Z,19.58
2019-06-08T05:46:00.306Z,19.42
2019-06-08T05:48:26.482Z,18.27
2019-06-08T05:51:03.074Z,17.62
2019-06-08T05:53:20.787Z,17.20
2019-06-08T05:55:47.982Z,15.82
2019-06-08T05:58:14.440Z,14.95
2019-06-08T06:00:42.061Z,17.32
2019-06-08T06:03:08.595Z,18.10
2019-06-08T06:05:34.794Z,18.34
2019-06-08T06:08:00.950Z,18.52
2019-06-08T06:10:27.168Z,18.98
2019-06-08T06:12:53.425Z,20.54
2019-06-08T06:15:19.700Z,22.82
2019-06-08T06:17:46.643Z,23.54
2019-06-08T06:20:14.589Z,22.09
2019-06-08T06:22:42.028Z,20.63
2019-06-08T06:25:08.916Z,19.17
2019-06-08T06:27:35.187Z,19.82
2019-06-08T06:30:02.980Z,18.56
2019-06-08T06:32:29.229Z,20.22
2019-06-08T06:34:57.586Z,19.41
2019-06-08T06:37:23.870Z,18.87
2019-06-08T06:39:52.283Z,19.41
2019-06-08T06:42:18.983Z,19.38
2019-06-08T06:44:46.837Z,18.99
2019-06-08T06:47:13.327Z,18.29
2019-06-08T06:49:42.413Z,18.06
2019-06-08T06:52:07.592Z,18.27
2019-06-08T06:54:33.761Z,18.16
2019-06-08T06:56:59.964Z,17.36
2019-06-08T06:59:26.117Z,18.54
2019-06-08T07:01:56.857Z,18.55
2019-06-08T07:04:20.497Z,19.78
2019-06-08T07:06:50.116Z,23.02
2019-06-08T07:09:16.538Z,19.51
2019-06-08T07:11:42.748Z,20.95
2019-06-08T07:14:08.934Z,21.00
2019-06-08T07:16:47.759Z,20.26
2019-06-08T07:19:08.845Z,19.18
2019-06-08T07:21:41.708Z,19.30
2019-06-08T07:24:04.867Z,19.97
2019-06-08T07:26:31.103Z,21.33
2019-06-08T07:28:57.279Z,19.75
2019-06-08T07:31:23.533Z,20.93
2019-06-08T07:33:51.880Z,21.56
2019-06-08T07:36:17.813Z,20.73
2019-06-08T07:38:43.968Z,20.29
2019-06-08T07:41:10.176Z,19.15
2019-06-08T07:43:36.347Z,19.07
2019-06-08T07:46:03.509Z,21.44
2019-06-08T07:48:29.700Z,21.35
2019-06-08T07:50:56.385Z,22.52
2019-06-08T07:53:22.769Z,23.38
2019-06-08T07:55:50.051Z,22.36
2019-06-08T07:58:16.662Z,21.34
2019-06-08T08:00:42.819Z,21.94
2019-06-08T08:03:09.037Z,22.02
2019-06-08T08:05:35.195Z,22.70
2019-06-08T08:08:01.358Z,20.89
2019-06-08T08:10:27.571Z,21.34
2019-06-08T08:12:54.765Z,19.95
2019-06-08T08:15:21.048Z,18.51
2019-06-08T08:17:47.255Z,19.58
2019-06-08T08:20:13.408Z,19.98
2019-06-08T08:22:39.873Z,21.26
2019-06-08T08:25:08.251Z,21.85
2019-06-08T08:27:34.670Z,22.61
2019-06-08T08:30:02.092Z,20.81
2019-06-08T08:32:28.643Z,21.09
2019-06-08T08:34:58.412Z,20.67
2019-06-08T08:37:22.862Z,20.32
2019-06-08T08:39:50.192Z,20.74
2019-06-08T08:42:18.034Z,20.28
2019-06-08T08:44:44.400Z,18.99
2019-06-08T08:47:10.605Z,21.46
2019-06-08T08:49:38.084Z,21.42
2019-06-08T08:52:04.561Z,22.92
2019-06-08T08:54:30.890Z,22.01
2019-06-08T08:57:02.915Z,22.53
2019-06-08T08:59:25.253Z,22.15
2019-06-08T09:01:52.827Z,21.96
2019-06-08T09:04:19.137Z,19.80
2019-06-08T09:06:45.312Z,20.19
2019-06-08T09:09:11.501Z,18.89
2019-06-08T09:11:38.396Z,18.55
2019-06-08T09:14:10.946Z,20.47
2019-06-08T09:16:33.864Z,19.95
2019-06-08T09:19:02.890Z,18.93
2019-06-08T09:21:28.309Z,19.16
2019-06-08T09:23:55.852Z,21.25
2019-06-08T09:26:22.878Z,19.52
2019-06-08T09:28:49.032Z,19.59
2019-06-08T09:31:15.258Z,20.51
2019-06-08T09:33:41.403Z,19.54
2019-06-08T09:36:08.171Z,19.93
2019-06-08T09:38:34.789Z,18.87
2019-06-08T09:41:03.516Z,18.80
2019-06-08T09:43:29.095Z,20.11
2019-06-08T09:45:55.442Z,19.45
2019-06-08T09:48:23.481Z,19.52
2019-06-08T09:50:49.633Z,18.52
2019-06-08T09:53:27.935Z,18.10
2019-06-08T09:55:43.930Z,17.94
2019-06-08T09:58:11.899Z,18.05
2019-06-08T10:00:38.201Z,17.75
2019-06-08T10:03:06.262Z,18.56
2019-06-08T10:05:32.450Z,19.19
2019-06-08T10:08:00.883Z,18.15
2019-06-08T10:10:26.844Z,18.42
2019-06-08T10:12:54.494Z,18.13
2019-06-08T10:15:20.937Z,19.73
2019-06-08T10:17:47.574Z,20.11
2019-06-08T10:20:14.583Z,19.08
2019-06-08T10:22:42.580Z,17.79
2019-06-08T10:25:11.125Z,16.35
2019-06-08T10:27:38.586Z,19.09
2019-06-08T10:30:09.713Z,17.44
2019-06-08T10:32:34.446Z,17.29
2019-06-08T10:35:03.729Z,17.61
2019-06-08T10:37:28.740Z,17.46
2019-06-08T10:39:56.446Z,15.95
2019-06-08T10:42:22.990Z,15.34
2019-06-08T10:44:49.201Z,14.83
2019-06-08T10:47:15.385Z,14.61
2019-06-08T10:49:41.559Z,13.62
2019-06-08T10:52:10.637Z,14.46
2019-06-08T10:54:37.815Z,13.82
2019-06-08T10:57:06.711Z,13.80
2019-06-08T10:59:32.025Z,14.02
2019-06-08T11:02:00.982Z,14.66
2019-06-08T11:04:28.492Z,14.26
2019-06-08T11:06:54.421Z,15.95
2019-06-08T11:09:20.865Z,16.92
2019-06-08T11:11:48.106Z,13.86
2019-06-08T11:14:14.492Z,14.29
2019-06-08T11:16:40.792Z,13.42
2019-06-08T11:19:11.409Z,13.95
2019-06-08T11:21:38.529Z,14.24
2019-06-08T11:24:13.326Z,14.30
2019-06-08T11:26:31.725Z,13.60
2019-06-08T11:28:58.740Z,12.78
2019-06-08T11:31:28.183Z,12.01
2019-06-08T11:33:53.302Z,14.23
2019-06-08T11:36:19.499Z,13.80
2019-06-08T11:38:47.676Z,13.95
2019-06-08T11:41:13.961Z,13.60
2019-06-08T11:43:40.360Z,13.82
2019-06-08T11:46:06.723Z,14.47
2019-06-08T11:48:32.929Z,16.02
2019-06-08T11:51:00.532Z,14.71
2019-06-08T11:53:28.818Z,14.96
2019-06-08T11:55:55.118Z,15.42
2019-06-08T11:58:22.957Z,14.12
2019-06-08T12:00:53.488Z,13.46
2019-06-08T12:03:20.166Z,12.24
2019-06-08T12:05:47.758Z,11.78
2019-06-08T12:08:14.583Z,13.17
2019-06-08T12:10:41.136Z,13.76
2019-06-08T12:13:09.755Z,16.70
2019-06-08T12:15:35.632Z,16.26
2019-06-08T12:18:01.807Z,16.45
2019-06-08T12:20:28.119Z,17.02
2019-06-08T12:22:54.263Z,16.03
2019-06-08T12:25:20.454Z,16.51
2019-06-08T12:27:48.718Z,16.08
2019-06-08T12:30:21.717Z,14.79
2019-06-08T12:32:42.967Z,17.41
2019-06-08T12:35:10.922Z,16.19
2019-06-08T12:37:38.706Z,16.74
2019-06-08T12:40:05.000Z,16.25
2019-06-08T12:42:31.213Z,15.60
2019-06-08T12:44:58.764Z,15.78
2019-06-08T12:47:27.395Z,14.72
2019-06-08T12:49:55.318Z,14.82
2019-06-08T12:52:22.482Z,15.07
2019-06-08T12:55:00.218Z,14.84
2019-06-08T12:57:19.987Z,18.17
2019-06-08T12:59:45.542Z,16.04
2019-06-08T13:02:15.652Z,15.71
2019-06-08T13:04:39.831Z,15.58
2019-06-08T13:07:08.394Z,15.45
2019-06-08T13:09:38.215Z,15.90
2019-06-08T13:12:04.190Z,15.36
2019-06-08T13:14:30.342Z,16.64
2019-06-08T13:16:56.518Z,18.49
2019-06-08T13:19:22.726Z,16.23
2019-06-08T13:21:48.893Z,16.67
2019-06-08T13:24:15.302Z,14.80
2019-06-08T13:26:41.672Z,14.36
2019-06-08T13:29:09.191Z,15.37
2019-06-08T13:31:38.237Z,16.22
2019-06-08T13:34:04.092Z,16.04
2019-06-08T13:36:30.250Z,16.41
2019-06-08T13:38:56.425Z,16.93
2019-06-08T13:41:26.240Z,16.46
2019-06-08T13:43:50.704Z,16.43
2019-06-08T13:46:19.172Z,16.94
2019-06-08T13:48:44.973Z,17.43
2019-06-08T13:51:13.303Z,15.49
2019-06-08T13:53:39.244Z,14.39
2019-06-08T13:56:07.669Z,16.35
2019-06-08T13:58:33.855Z,16.17
2019-06-08T14:01:00.554Z,15.48
2019-06-08T14:03:27.751Z,15.33
2019-06-08T14:05:54.149Z,15.00
2019-06-08T14:08:22.390Z,14.66
2019-06-08T14:10:48.437Z,14.77
2019-06-08T14:13:15.162Z,16.17
2019-06-08T14:15:41.464Z,16.86
2019-06-08T14:18:08.800Z,14.74
2019-06-08T14:20:38.227Z,16.36
2019-06-08T14:23:03.524Z,17.40
2019-06-08T14:25:34.147Z,16.16
2019-06-08T14:27:57.896Z,15.20
2019-06-08T14:30:28.039Z,15.01
2019-06-08T14:32:52.962Z,16.77
2019-06-08T14:35:22.322Z,17.05
2019-06-08T14:37:48.172Z,15.51
2019-06-08T14:40:14.706Z,15.50
2019-06-08T14:42:40.892Z,16.71
2019-06-08T14:45:10.742Z,16.13
2019-06-08T14:47:37.630Z,16.04
2019-06-08T14:50:07.982Z,15.72
2019-06-08T14:52:34.096Z,14.47
2019-06-08T14:55:00.292Z,13.66
2019-06-08T14:57:28.204Z,13.70
2019-06-08T14:59:57.229Z,14.02
2019-06-08T15:02:23.515Z,13.96
2019-06-08T15:04:49.827Z,15.82
2019-06-08T15:07:20.081Z,15.38
2019-06-08T15:09:44.070Z,16.70
2019-06-08T15:12:10.269Z,15.90
2019-06-08T15:14:38.401Z,16.04
2019-06-08T15:17:04.541Z,16.23
2019-06-08T15:19:32.478Z,15.86
2019-06-08T15:21:58.793Z,16.49
2019-06-08T15:24:24.984Z,16.66
2019-06-08T15:26:51.171Z,16.91
2019-06-08T15:29:17.345Z,16.40
2019-06-08T15:31:43.528Z,16.01
2019-06-08T15:34:10.765Z,16.17
2019-06-08T15:36:38.170Z,15.94
2019-06-08T15:39:07.800Z,16.80
2019-06-08T15:41:34.104Z,17.09
2019-06-08T15:44:00.278Z,17.69
2019-06-08T15:46:26.466Z,18.36
2019-06-08T15:48:52.627Z,16.80
2019-06-08T15:51:18.802Z,17.90
2019-06-08T15:53:44.993Z,17.21
2019-06-08T15:56:11.167Z,18.05
2019-06-08T15:58:40.195Z,18.36
2019-06-08T16:01:06.127Z,18.41
2019-06-08T16:03:33.484Z,19.09
2019-06-08T16:05:59.853Z,21.32
2019-06-08T16:08:26.231Z,21.67
2019-06-08T16:10:52.432Z,19.98
2019-06-08T16:13:18.610Z,20.43
2019-06-08T16:15:44.799Z,20.43
2019-06-08T16:18:10.966Z,20.66
2019-06-08T16:20:37.139Z,20.50
2019-06-08T16:23:03.433Z,21.96
2019-06-08T16:25:29.753Z,21.48
2019-06-08T16:27:55.987Z,21.76
2019-06-08T16:30:22.176Z,21.24
2019-06-08T16:32:48.340Z,21.09
2019-06-08T16:35:14.565Z,21.28
2019-06-08T16:37:40.887Z,21.41
2019-06-08T16:40:07.047Z,22.49
2019-06-08T16:42:34.480Z,22.54
2019-06-08T16:45:00.816Z,22.59
2019-06-08T16:47:27.049Z,22.82
2019-06-08T16:49:53.265Z,21.98
2019-06-08T16:52:19.473Z,21.64
2019-06-08T16:54:45.626Z,23.57
2019-06-08T16:57:11.781Z,23.91
2019-06-08T16:59:38.686Z,24.13
2019-06-08T17:02:05.144Z,24.93
2019-06-08T17:04:31.399Z,24.06
2019-06-08T17:06:57.647Z,25.65
2019-06-08T17:09:23.805Z,25.39
2019-06-08T17:11:50.431Z,25.03
2019-06-08T17:14:16.826Z,24.31
2019-06-08T17:16:42.983Z,25.57
2019-06-08T17:19:09.156Z,25.15
2019-06-08T17:21:36.357Z,24.99
2019-06-08T17:24:02.635Z,25.70
2019-06-08T17:26:30.422Z,26.59
2019-06-08T17:28:56.824Z,26.50
2019-06-08T17:31:22.985Z,26.58
2019-06-08T17:33:49.167Z,27.13
2019-06-08T17:36:15.483Z,26.91
2019-06-08T17:38:41.699Z,27.31
2019-06-08T17:41:08.174Z,26.65
2019-06-08T17:43:34.578Z,27.09
2019-06-08T17:46:00.737Z,26.87
2019-06-08T17:48:26.918Z,27.24
2019-06-08T17:50:53.134Z,27.18
2019-06-08T17:53:19.298Z,26.86
2019-06-08T17:55:45.455Z,27.83
2019-06-08T17:58:11.664Z,28.66
2019-06-08T18:00:37.920Z,28.25
2019-06-08T18:03:04.096Z,27.83
2019-06-08T18:05:30.310Z,27.54
2019-06-08T18:07:57.840Z,28.09
2019-06-08T18:10:24.249Z,27.78
2019-06-08T18:12:50.486Z,28.43
2019-06-08T18:15:17.512Z,28.68
2019-06-08T18:17:45.258Z,29.05
2019-06-08T18:20:13.579Z,29.79
2019-06-08T18:22:42.877Z,28.51
2019-06-08T18:25:08.145Z,28.06
2019-06-08T18:27:34.642Z,28.09
2019-06-08T18:30:08.039Z,28.42
2019-06-08T18:32:29.222Z,28.77
2019-06-08T18:34:57.250Z,29.29
2019-06-08T18:37:23.515Z,28.07
2019-06-08T18:39:49.853Z,27.43
2019-06-08T18:42:17.939Z,28.09
2019-06-08T18:44:45.811Z,28.97
2019-06-08T18:47:12.496Z,28.35
2019-06-08T18:49:41.609Z,27.05
2019-06-08T18:52:08.114Z,28.33
2019-06-08T18:54:35.336Z,27.62
2019-06-08T18:57:05.833Z,28.48
2019-06-08T18:59:30.746Z,27.60
2019-06-08T19:01:57.037Z,28.33
2019-06-08T19:04:23.256Z,29.00
2019-06-08T19:06:50.122Z,27.96
2019-06-08T19:09:17.191Z,27.53
2019-06-08T19:11:43.620Z,27.80
2019-06-08T19:14:09.836Z,27.80
2019-06-08T19:16:36.961Z,28.29
2019-06-08T19:19:04.293Z,28.33
2019-06-08T19:21:30.454Z,27.60
2019-06-08T19:23:56.636Z,27.95
2019-06-08T19:26:22.852Z,29.51
2019-06-08T19:28:53.821Z,29.81
2019-06-08T19:31:17.601Z,29.57
2019-06-08T19:33:43.898Z,30.50
2019-06-08T19:36:10.364Z,29.07
2019-06-08T19:38:38.461Z,29.05
2019-06-08T19:41:04.913Z,29.92
2019-06-08T19:43:31.089Z,29.48
2019-06-08T19:45:58.063Z,29.73
2019-06-08T19:48:29.885Z,29.82
2019-06-08T19:50:54.365Z,30.65
2019-06-08T19:53:20.867Z,30.67
2019-06-08T19:55:52.044Z,30.18
2019-06-08T19:58:17.904Z,31.06
2019-06-08T20:00:44.248Z,36.74
2019-06-08T20:03:10.691Z,34.93
2019-06-08T20:05:37.801Z,33.13
2019-06-08T20:08:04.104Z,34.16
2019-06-08T20:10:30.323Z,35.20
2019-06-08T20:12:57.597Z,37.49
2019-06-08T20:15:24.256Z,37.95
2019-06-08T20:17:51.548Z,36.91
2019-06-08T20:20:18.427Z,36.32
2019-06-08T20:22:45.947Z,33.88
2019-06-08T20:25:12.945Z,32.91
2019-06-08T20:27:39.446Z,32.03
2019-06-08T20:30:09.567Z,33.94
2019-06-08T20:32:34.495Z,33.21
2019-06-08T20:35:00.670Z,33.70
2019-06-08T20:37:28.274Z,31.82
2019-06-08T20:40:09.011Z,31.59
2019-06-08T20:42:22.971Z,30.47
2019-06-08T20:44:51.578Z,31.10
2019-06-08T20:47:17.909Z,32.55
2019-06-08T20:49:48.660Z,31.73
2019-06-08T20:52:13.385Z,31.59
2019-06-08T20:54:39.579Z,32.48
2019-06-08T20:57:07.596Z,33.05
2019-06-08T20:59:34.458Z,33.70
2019-06-08T21:02:00.812Z,37.26
2019-06-08T21:04:27.633Z,34.35
2019-06-08T21:06:54.407Z,34.26
2019-06-08T21:09:20.761Z,35.67
2019-06-08T21:11:49.805Z,33.92
2019-06-08T21:14:17.329Z,32.77
2019-06-08T21:16:43.112Z,31.28
2019-06-08T21:19:09.264Z,30.59
2019-06-08T21:21:37.560Z,31.44
2019-06-08T21:24:03.524Z,31.10
2019-06-08T21:26:29.700Z,30.03
2019-06-08T21:29:00.129Z,29.69
2019-06-08T21:31:23.941Z,32.31
2019-06-08T21:33:52.134Z,32.37
2019-06-08T21:36:18.313Z,33.90
2019-06-08T21:38:44.594Z,36.15
2019-06-08T21:41:10.869Z,36.70
2019-06-08T21:43:37.516Z,37.57
2019-06-08T21:46:03.862Z,35.98
2019-06-08T21:48:30.245Z,35.67
2019-06-08T21:51:01.003Z,35.70
2019-06-08T21:53:24.724Z,36.95
2019-06-08T21:55:52.087Z,36.63
2019-06-08T21:58:18.381Z,37.77
2019-06-08T22:00:49.380Z,36.23
2019-06-08T22:03:17.440Z,35.10
2019-06-08T22:05:43.460Z,37.12
2019-06-08T22:08:09.666Z,36.51
2019-06-08T22:10:37.713Z,35.26
2019-06-08T22:13:03.917Z,35.22
2019-06-08T22:15:30.144Z,34.85
2019-06-08T22:17:59.686Z,35.58
2019-06-08T22:20:24.478Z,34.58
2019-06-08T22:22:51.772Z,32.62
2019-06-08T22:25:18.157Z,34.23
2019-06-08T22:27:44.305Z,36.76
2019-06-08T22:30:18.444Z,36.57
2019-06-08T22:32:39.376Z,40.13
2019-06-08T22:35:08.031Z,37.50
2019-06-08T22:37:33.972Z,36.15
2019-06-08T22:40:01.033Z,36.73
2019-06-08T22:42:29.144Z,36.45
2019-06-08T22:44:59.214Z,35.55
2019-06-08T22:47:23.762Z,37.95
2019-06-08T22:49:49.930Z,36.94
2019-06-08T22:52:18.496Z,38.48
2019-06-08T22:54:47.565Z,36.98
2019-06-08T22:57:13.307Z,37.78
2019-06-08T22:59:39.501Z,37.11
2019-06-08T23:02:08.800Z,37.78
2019-06-08T23:04:33.902Z,37.95
2019-06-08T23:07:04.016Z,39.09
2019-06-08T23:09:28.445Z,40.23
2019-06-08T23:11:55.544Z,38.79
2019-06-08T23:14:22.812Z,39.05
2019-06-08T23:16:48.980Z,36.16
2019-06-08T23:19:17.294Z,35.46
2019-06-08T23:21:43.266Z,37.22
2019-06-08T23:24:09.527Z,38.08
2019-06-08T23:26:37.239Z,37.77
2019-06-08T23:29:04.398Z,37.97
2019-06-08T23:31:30.686Z,36.14
2019-06-08T23:33:59.652Z,35.89
2019-06-08T23:36:51.605Z,38.04
2019-06-08T23:38:53.121Z,38.21
2019-06-08T23:41:19.291Z,34.35
2019-06-08T23:43:47.889Z,33.62
2019-06-08T23:46:13.662Z,33.81
2019-06-08T23:48:39.838Z,34.49
2019-06-08T23:51:09.082Z,34.29
2019-06-08T23:53:34.116Z,34.15
2019-06-08T23:56:02.294Z,35.16
2019-06-08T23:58:28.474Z,35.60
